Startpagina
METAR-TAF:

METAR-TAF

Vliegvelden :

Jersey Airport

Jersey,

breedte: 49-13N, lengte: 002-12W, hoogte: 84 m

Actueel weer

Dit bericht is 27 minuten geleden gemaakt, om 08:20 UTC
Wind 14 kt uit het westnoordwesten
Temperatuur 8°C
Vochtigheid 87%
Druk 1014 hPa
Zicht 10 km of meer
Weinig wolken op 1600 ft
buien in de omgeving

METAR: EGJJ 290820Z 29014KT 9999 VCSH FEW016 08/06 Q1014

Tijdstip: 08:47 (08:47 UTC)

Verwachting

Dit bericht is 45 minuten geleden gemaakt, om 08:02 UTC
Verwachting geldig van 29 om 09 UTC tot 29 om 18 UTC
Wind 15 kt uit het westen
Zicht 10 km of meer
Weinig wolken op 1800 ft
Verspreide wolken op 2500 ft
Kans 40% :
Tijdelijke
van 29 om 09 UTC tot 29 om 11 UTC
Wind 17 kt uit het westnoordwesten met uitschieters tot 29 kt
Zicht: 8000 m
Gebroken wolken op 1500 ft
regenbuien
Wijzigt naar
van 29 om 14 UTC tot 29 om 16 UTC
Wind 11 kt uit het zuidwesten

TAF: EGJJ 290802Z 2909/2918 28015KT 9999 FEW018 SCT025 PROB40 TEMPO 2909/2911 29017G29KT 8000 SHRA BKN015 BECMG 2914/2916 22011KT

Waarnemingen en weersverwachtingen van meer dan 4000 vliegvelden (METAR en TAF).

De beschikbare stations zijn de gele en rode punten op de kaart.

Ga met uw muis naar het station om de naam te zien.

Klik dan om waarnemingen en weersverwachtingen te zien.

kaart wijzigen: klik op de groene knoppen met een zwart kruis om in te zoomen, op de groene knop met een streepje om uit te zoomen of op de groene pijlen voor aangrenzende kaarten.


METAR-TAF: